Time;durP1;ratioP1;P1;durP2;ratioP2;P2;SDS_P1;SDS_P2;PMS_P1;PMS_P2;Temp;Humidity;BMP_temperature;BMP_pressure;BME280_temperature;BME280_humidity;BME280_pressure;Samples;Min_cycle;Max_cycle;Signal;HPM_P1;HPM_P2
2022/11/01 00:01:58;;;;;;;6.20;5.70;;;23.80;68.90;;;;;;5038652;28;20458;-71
2022/11/01 00:04:26;;;;;;;5.60;5.20;;;23.80;68.90;;;;;;5049401;28;20449;-71
2022/11/01 00:06:54;;;;;;;6.00;5.50;;;23.80;68.90;;;;;;5044409;28;20488;-71
2022/11/01 00:09:23;;;;;;;6.17;5.67;;;23.80;68.90;;;;;;5031870;28;20460;-71
2022/11/01 00:11:52;;;;;;;5.70;5.10;;;23.80;68.90;;;;;;5038539;28;20446;-72
2022/11/01 00:14:21;;;;;;;5.57;5.10;;;23.80;68.80;;;;;;5032393;28;20539;-71
2022/11/01 00:16:49;;;;;;;5.70;5.20;;;23.80;68.80;;;;;;5027050;28;20947;-72
2022/11/01 00:19:18;;;;;;;5.53;5.03;;;23.80;68.80;;;;;;5018838;28;20468;-71
2022/11/01 00:21:46;;;;;;;10.10;5.93;;;23.80;68.80;;;;;;5028666;28;20448;-73
2022/11/01 00:24:14;;;;;;;6.53;5.93;;;23.80;68.90;;;;;;5023678;28;20474;-71
2022/11/01 00:26:42;;;;;;;6.20;5.70;;;23.80;69.10;;;;;;5026969;28;20479;-71
2022/11/01 00:29:13;;;;;;;5.57;5.17;;;23.80;69.10;;;;;;5037991;28;20796;-71
2022/11/01 00:31:41;;;;;;;6.03;5.43;;;23.80;69.10;;;;;;5038938;28;20492;-71
2022/11/01 00:34:09;;;;;;;6.57;5.57;;;23.80;69.00;;;;;;5038497;28;20453;-71
2022/11/01 00:36:38;;;;;;;6.40;5.10;;;23.80;69.10;;;;;;5025182;28;20469;-71
2022/11/01 00:39:06;;;;;;;7.67;5.30;;;23.80;69.20;;;;;;5019163;28;20454;-71
2022/11/01 00:41:34;;;;;;;6.07;4.97;;;23.80;69.30;;;;;;5022885;28;20462;-71
2022/11/01 00:44:03;;;;;;;6.73;5.80;;;23.80;69.20;;;;;;5015187;28;20475;-71
2022/11/01 00:46:33;;;;;;;6.33;5.83;;;23.80;69.20;;;;;;5027719;28;20462;-71
2022/11/01 00:49:01;;;;;;;8.63;5.27;;;23.80;69.10;;;;;;5023395;28;20452;-71
2022/11/01 00:51:29;;;;;;;6.93;5.87;;;23.80;69.10;;;;;;5031007;28;20463;-70
2022/11/01 00:53:57;;;;;;;6.40;5.90;;;23.80;69.10;;;;;;5033597;28;20470;-72
2022/11/01 00:56:25;;;;;;;19.13;6.07;;;23.80;69.00;;;;;;5031499;28;20486;-71
2022/11/01 00:58:53;;;;;;;5.87;5.37;;;23.80;69.10;;;;;;5037561;28;20466;-71
2022/11/01 01:01:22;;;;;;;6.20;5.67;;;23.80;69.10;;;;;;5032659;28;20442;-71
2022/11/01 01:03:51;;;;;;;5.57;5.00;;;23.80;69.10;;;;;;5032696;28;20458;-71
2022/11/01 01:06:20;;;;;;;5.73;5.23;;;23.80;69.10;;;;;;5030317;28;20904;-71
2022/11/01 01:08:48;;;;;;;6.60;5.40;;;23.80;69.00;;;;;;5024471;28;20488;-71
2022/11/01 01:11:16;;;;;;;6.93;6.33;;;23.80;69.00;;;;;;5031835;28;20456;-71
2022/11/01 01:13:44;;;;;;;6.30;5.70;;;23.70;69.00;;;;;;5032701;28;20548;-71
2022/11/01 01:16:13;;;;;;;5.67;5.17;;;23.70;69.00;;;;;;5032250;28;20457;-71
2022/11/01 01:18:41;;;;;;;6.63;6.03;;;23.70;69.00;;;;;;5020333;28;20542;-71
2022/11/01 01:21:12;;;;;;;5.60;5.20;;;23.70;69.00;;;;;;5025775;28;20782;-71
2022/11/01 01:23:42;;;;;;;9.10;8.10;;;23.70;69.00;;;;;;5015991;28;20459;-70
2022/11/01 01:26:11;;;;;;;6.77;6.20;;;23.70;69.00;;;;;;5023877;28;20459;-71
2022/11/01 01:28:39;;;;;;;6.70;6.20;;;23.70;69.00;;;;;;5032735;28;20498;-72
2022/11/01 01:31:12;;;;;;;11.70;6.30;;;23.70;69.00;;;;;;5030460;28;20496;-72
2022/11/01 01:33:41;;;;;;;6.43;5.90;;;23.70;69.20;;;;;;5027129;28;20464;-72
2022/11/01 01:36:11;;;;;;;6.57;5.70;;;23.70;69.50;;;;;;5032129;28;20458;-72
2022/11/01 01:38:39;;;;;;;7.03;5.70;;;23.70;69.70;;;;;;5031537;28;20440;-72
2022/11/01 01:43:53;;;;;;;5.60;5.10;;;23.70;69.90;;;;;;5032781;28;20438;-72
2022/11/01 01:46:21;;;;;;;6.60;6.10;;;23.70;69.90;;;;;;5031832;28;20465;-71
2022/11/01 01:48:55;;;;;;;5.70;5.27;;;23.70;69.80;;;;;;5032260;28;20467;-72
2022/11/01 01:51:27;;;;;;;5.73;5.30;;;23.70;69.80;;;;;;5032380;28;20451;-72
2022/11/01 01:53:57;;;;;;;5.97;5.47;;;23.70;69.70;;;;;;5032488;28;20492;-72
2022/11/01 01:56:30;;;;;;;5.70;5.20;;;23.70;69.70;;;;;;5031412;28;20550;-72
2022/11/01 01:59:03;;;;;;;5.77;5.27;;;23.70;69.60;;;;;;5032593;28;20540;-72
2022/11/01 02:01:34;;;;;;;6.23;5.73;;;23.70;69.60;;;;;;5026545;28;20452;-72
2022/11/01 02:04:03;;;;;;;6.13;5.53;;;23.70;69.60;;;;;;5012189;28;20496;-72
2022/11/01 02:06:34;;;;;;;5.90;5.47;;;23.70;69.60;;;;;;5028850;28;20453;-72
2022/11/01 02:09:04;;;;;;;5.80;5.40;;;23.70;69.60;;;;;;5032130;28;20501;-73
2022/11/01 02:11:32;;;;;;;6.10;5.60;;;23.70;69.50;;;;;;5032129;28;20790;-72
2022/11/01 02:14:01;;;;;;;5.93;5.43;;;23.70;69.50;;;;;;5032269;28;20441;-72
2022/11/01 02:16:52;;;;;;;5.67;5.20;;;23.70;69.50;;;;;;5031743;28;20469;-73
2022/11/01 02:19:57;;;;;;;5.77;5.30;;;23.70;69.50;;;;;;5030640;28;20464;-73
2022/11/01 02:22:43;;;;;;;5.40;5.00;;;23.70;69.50;;;;;;5001931;28;20471;-72
2022/11/01 02:25:38;;;;;;;5.43;5.03;;;23.70;69.50;;;;;;5032329;28;20973;-72
2022/11/01 02:28:22;;;;;;;5.07;4.70;;;23.70;69.40;;;;;;5031340;28;20578;-72
2022/11/01 02:30:59;;;;;;;5.57;5.17;;;23.70;69.50;;;;;;5031580;28;20444;-72
2022/11/01 02:33:33;;;;;;;6.23;5.73;;;23.70;69.40;;;;;;5031707;28;20801;-72
2022/11/01 02:36:06;;;;;;;5.60;5.20;;;23.70;69.40;;;;;;5031437;28;20458;-72
2022/11/01 02:38:38;;;;;;;6.07;5.30;;;23.70;69.40;;;;;;5047163;28;20891;-72
2022/11/01 02:41:11;;;;;;;5.50;5.10;;;23.70;69.40;;;;;;5024252;28;20446;-72
2022/11/01 02:43:48;;;;;;;5.60;5.20;;;23.70;69.40;;;;;;5031742;28;20521;-72
2022/11/01 02:49:07;;;;;;;5.90;5.40;;;23.70;69.40;;;;;;5031064;28;20972;-73
2022/11/01 02:51:37;;;;;;;5.60;5.20;;;23.60;69.40;;;;;;5033472;28;20445;-73
2022/11/01 02:54:06;;;;;;;5.97;5.50;;;23.70;69.30;;;;;;5035429;28;20960;-73
2022/11/01 02:56:35;;;;;;;5.83;5.33;;;23.60;69.30;;;;;;5034520;28;20443;-72
2022/11/01 02:59:03;;;;;;;5.80;5.40;;;23.60;69.30;;;;;;5035195;28;20457;-72
2022/11/01 03:01:34;;;;;;;6.17;5.50;;;23.60;69.30;;;;;;5031475;28;20461;-73
2022/11/01 03:04:05;;;;;;;5.53;5.13;;;23.60;69.30;;;;;;5034483;28;20435;-73
2022/11/01 03:06:39;;;;;;;4.93;4.63;;;23.60;69.30;;;;;;5034477;28;20541;-72
2022/11/01 03:09:10;;;;;;;6.50;5.90;;;23.60;69.30;;;;;;5030525;28;20470;-73
2022/11/01 03:11:46;;;;;;;5.30;4.90;;;23.60;69.30;;;;;;5034004;28;20444;-72
2022/11/01 03:14:23;;;;;;;5.63;5.23;;;23.60;69.30;;;;;;5034021;28;20457;-73
2022/11/01 03:16:59;;;;;;;5.70;5.30;;;23.60;69.30;;;;;;5034535;28;20462;-72
2022/11/01 03:19:37;;;;;;;5.70;5.30;;;23.60;69.30;;;;;;5035002;28;20616;-72
2022/11/01 03:22:10;;;;;;;5.30;4.90;;;23.60;69.20;;;;;;5034368;28;20519;-72
2022/11/01 03:24:45;;;;;;;6.03;5.53;;;23.60;69.20;;;;;;5033951;28;20477;-72
2022/11/01 03:27:20;;;;;;;5.63;5.13;;;23.60;69.20;;;;;;5034662;28;20470;-72
2022/11/01 03:29:57;;;;;;;7.17;6.47;;;23.60;69.20;;;;;;5034698;28;20482;-72
2022/11/01 03:32:28;;;;;;;5.27;4.87;;;23.60;69.20;;;;;;5032275;28;20486;-72
2022/11/01 03:35:00;;;;;;;5.30;4.90;;;23.60;69.20;;;;;;5031793;28;20509;-72
2022/11/01 03:37:30;;;;;;;5.30;4.90;;;23.60;69.20;;;;;;5034558;28;20441;-72
2022/11/01 03:40:02;;;;;;;5.57;5.17;;;23.60;69.20;;;;;;5034398;28;20439;-72
2022/11/01 03:42:32;;;;;;;5.13;4.73;;;23.60;69.20;;;;;;5033933;28;20452;-73
2022/11/01 03:45:08;;;;;;;5.07;4.67;;;23.60;69.20;;;;;;5033759;28;20469;-72
2022/11/01 03:47:36;;;;;;;5.70;5.30;;;23.60;69.20;;;;;;5033486;28;20460;-72
2022/11/01 03:50:17;;;;;;;5.67;5.27;;;23.60;69.20;;;;;;5034509;28;20473;-73
2022/11/01 03:52:46;;;;;;;5.13;4.73;;;23.50;69.20;;;;;;5034187;28;20908;-72
2022/11/01 03:55:18;;;;;;;6.10;5.70;;;23.60;69.20;;;;;;5033462;28;20443;-72
2022/11/01 03:57:48;;;;;;;5.20;4.90;;;23.60;69.10;;;;;;5034405;28;20439;-72
2022/11/01 04:00:18;;;;;;;5.00;4.70;;;23.60;69.10;;;;;;5015065;28;20448;-73
2022/11/01 04:02:47;;;;;;;5.03;4.63;;;23.50;69.10;;;;;;5025824;28;20439;-72
2022/11/01 04:05:17;;;;;;;5.60;5.10;;;23.50;69.10;;;;;;5032722;28;20465;-72
2022/11/01 04:07:46;;;;;;;4.50;4.20;;;23.50;69.10;;;;;;5033649;28;20450;-72
2022/11/01 04:10:15;;;;;;;5.23;4.80;;;23.50;69.10;;;;;;5034095;28;20512;-72
2022/11/01 04:12:45;;;;;;;4.87;4.57;;;23.50;69.10;;;;;;5033682;28;20455;-72
2022/11/01 04:20:52;;;;;;;4.60;4.30;;;23.50;69.10;;;;;;5033011;28;20957;-72
2022/11/01 04:23:20;;;;;;;4.83;4.53;;;23.50;69.10;;;;;;5033932;28;20436;-72
2022/11/01 04:25:48;;;;;;;5.63;5.20;;;23.50;69.10;;;;;;5032531;28;20450;-72
2022/11/01 04:28:16;;;;;;;5.17;4.77;;;23.50;69.10;;;;;;5033873;28;20981;-72
2022/11/01 04:30:45;;;;;;;5.13;4.80;;;23.50;69.00;;;;;;5030935;28;20987;-72
2022/11/01 04:33:13;;;;;;;4.23;3.93;;;23.50;69.00;;;;;;5033136;28;20462;-72
2022/11/01 04:35:41;;;;;;;4.57;4.27;;;23.50;69.00;;;;;;5032335;28;20961;-73
2022/11/01 04:38:11;;;;;;;4.90;4.50;;;23.50;69.00;;;;;;5032283;28;20460;-72
2022/11/01 04:40:40;;;;;;;7.23;5.43;;;23.50;69.00;;;;;;5033097;28;20442;-73
2022/11/01 04:43:08;;;;;;;4.57;4.27;;;23.50;69.00;;;;;;5033704;28;20425;-73
2022/11/01 04:45:36;;;;;;;5.80;4.73;;;23.50;69.00;;;;;;5032908;28;20454;-73
2022/11/01 04:48:06;;;;;;;5.63;5.03;;;23.50;69.00;;;;;;5025648;28;20768;-72
2022/11/01 04:50:35;;;;;;;5.73;5.23;;;23.50;69.00;;;;;;5013450;28;20483;-73
2022/11/01 04:53:03;;;;;;;5.43;5.03;;;23.50;69.00;;;;;;5013280;28;20432;-72
2022/11/01 04:55:33;;;;;;;5.30;4.90;;;23.50;69.00;;;;;;5028722;28;20537;-73
2022/11/01 04:58:03;;;;;;;4.90;4.50;;;23.50;68.90;;;;;;5032921;28;20445;-73
2022/11/01 05:00:31;;;;;;;5.07;4.77;;;23.50;68.90;;;;;;5033004;28;20445;-73
2022/11/01 05:03:01;;;;;;;4.77;4.40;;;23.50;68.90;;;;;;5030918;28;20479;-73
2022/11/01 05:05:30;;;;;;;5.33;5.00;;;23.50;68.90;;;;;;5031650;28;20457;-73
2022/11/01 05:08:02;;;;;;;4.57;4.20;;;23.50;68.90;;;;;;5031700;28;21033;-73
2022/11/01 05:10:30;;;;;;;5.77;5.37;;;23.50;68.90;;;;;;5037527;28;20878;-72
2022/11/01 05:13:00;;;;;;;5.27;4.87;;;23.50;68.90;;;;;;5052950;28;20424;-72
2022/11/01 05:15:29;;;;;;;4.90;4.50;;;23.50;68.90;;;;;;5043392;28;21047;-72
2022/11/01 05:17:57;;;;;;;5.40;5.00;;;23.50;68.90;;;;;;5032068;28;20845;-71
2022/11/01 05:20:25;;;;;;;4.93;4.53;;;23.50;68.90;;;;;;5032872;28;20432;-72
2022/11/01 05:22:58;;;;;;;5.30;5.00;;;23.50;68.80;;;;;;5033083;28;20449;-72
2022/11/01 05:25:26;;;;;;;4.90;4.50;;;23.50;68.80;;;;;;5031506;28;20494;-72
2022/11/01 05:28:00;;;;;;;5.73;4.60;;;23.50;68.70;;;;;;5032627;28;20476;-71
2022/11/01 05:30:29;;;;;;;5.30;5.00;;;23.50;68.70;;;;;;5031962;28;20461;-71
2022/11/01 05:32:59;;;;;;;5.17;4.77;;;23.50;68.70;;;;;;5032713;28;20976;-72
2022/11/01 05:35:28;;;;;;;4.77;4.40;;;23.50;68.70;;;;;;5032147;28;20459;-72
2022/11/01 05:37:57;;;;;;;4.40;4.10;;;23.50;68.70;;;;;;5024664;28;20776;-72
2022/11/01 05:40:25;;;;;;;5.20;4.30;;;23.50;68.70;;;;;;5027306;28;20459;-72
2022/11/01 05:42:53;;;;;;;4.57;4.27;;;23.50;68.70;;;;;;5032394;28;20453;-72
2022/11/01 05:45:23;;;;;;;5.60;4.87;;;23.50;68.70;;;;;;5031854;28;20463;-73
2022/11/01 05:47:51;;;;;;;5.20;4.80;;;23.50;68.70;;;;;;5032186;28;20458;-72
2022/11/01 05:50:20;;;;;;;5.10;4.80;;;23.50;68.70;;;;;;5032217;28;20996;-72
2022/11/01 05:52:49;;;;;;;5.00;4.70;;;23.50;68.70;;;;;;5030959;28;20465;-72
2022/11/01 05:55:18;;;;;;;4.30;4.00;;;23.50;68.70;;;;;;5032585;28;20445;-73
2022/11/01 05:57:46;;;;;;;4.70;4.30;;;23.50;68.70;;;;;;5032111;28;20442;-73
2022/11/01 06:00:15;;;;;;;4.87;4.57;;;23.50;68.70;;;;;;5031864;28;20517;-73
2022/11/01 06:02:44;;;;;;;5.20;4.80;;;23.50;68.70;;;;;;5029371;28;20450;-73
2022/11/01 06:05:12;;;;;;;4.97;4.63;;;23.50;68.70;;;;;;5032508;28;20441;-72
2022/11/01 06:07:40;;;;;;;4.90;4.60;;;23.50;68.70;;;;;;5032207;28;20820;-74
2022/11/01 06:10:09;;;;;;;4.87;4.47;;;23.50;68.70;;;;;;5025805;28;20481;-73
2022/11/01 06:12:37;;;;;;;4.40;4.10;;;23.50;68.70;;;;;;5028511;28;20959;-72
2022/11/01 06:15:06;;;;;;;5.37;4.97;;;23.50;68.80;;;;;;5034704;28;20470;-73
2022/11/01 06:17:34;;;;;;;5.17;4.87;;;23.50;68.80;;;;;;5030434;28;20933;-73
2022/11/01 06:20:04;;;;;;;4.57;4.20;;;23.50;68.80;;;;;;5032210;28;20454;-72
2022/11/01 06:22:34;;;;;;;4.70;4.30;;;23.50;68.90;;;;;;5030070;28;20466;-72
2022/11/01 06:25:03;;;;;;;4.40;4.10;;;23.50;69.10;;;;;;5030104;28;20916;-72
2022/11/01 06:27:31;;;;;;;4.70;4.30;;;23.50;69.10;;;;;;5041331;28;20487;-72
2022/11/01 06:29:59;;;;;;;5.13;4.73;;;23.50;69.20;;;;;;5048557;28;20840;-72
2022/11/01 06:32:27;;;;;;;5.00;4.60;;;23.50;69.20;;;;;;5046248;28;20481;-72
2022/11/01 06:34:56;;;;;;;4.50;4.20;;;23.50;69.20;;;;;;5052088;28;20445;-72
2022/11/01 06:37:25;;;;;;;4.30;4.00;;;23.50;69.20;;;;;;5048446;28;20453;-72
2022/11/01 06:39:53;;;;;;;4.87;4.50;;;23.50;69.10;;;;;;5039877;28;20800;-72
2022/11/01 06:42:21;;;;;;;5.77;5.37;;;23.50;69.10;;;;;;5047730;28;20452;-72
2022/11/01 06:44:49;;;;;;;4.30;4.00;;;23.50;69.00;;;;;;5046935;28;20468;-72
2022/11/01 06:47:17;;;;;;;4.93;4.53;;;23.50;69.00;;;;;;5046953;28;20454;-72
2022/11/01 06:49:46;;;;;;;5.20;4.83;;;23.50;69.00;;;;;;5045509;28;20952;-72
2022/11/01 06:52:14;;;;;;;4.40;4.10;;;23.50;68.90;;;;;;5039822;28;20457;-72
2022/11/01 06:54:43;;;;;;;5.00;4.60;;;23.50;68.90;;;;;;5038972;28;20458;-73
2022/11/01 06:57:11;;;;;;;4.37;3.97;;;23.50;68.90;;;;;;5032832;28;20462;-72
2022/11/01 06:59:39;;;;;;;4.30;4.00;;;23.50;68.90;;;;;;5033095;28;20466;-72
2022/11/01 07:02:09;;;;;;;4.70;4.33;;;23.50;68.80;;;;;;5037150;28;20456;-71
2022/11/01 07:04:41;;;;;;;4.70;4.13;;;23.50;68.70;;;;;;5035846;28;20528;-72
2022/11/01 07:07:10;;;;;;;4.27;3.97;;;23.50;68.70;;;;;;5034358;28;20498;-72
2022/11/01 07:09:39;;;;;;;4.90;4.50;;;23.50;68.70;;;;;;5036170;28;20458;-71
2022/11/01 07:12:08;;;;;;;5.37;4.97;;;23.50;68.60;;;;;;5029825;28;20454;-71
2022/11/01 07:14:36;;;;;;;4.80;4.47;;;23.50;68.60;;;;;;5031256;28;20461;-71
2022/11/01 07:17:04;;;;;;;4.80;4.40;;;23.50;68.60;;;;;;5039711;28;20456;-74
2022/11/01 07:19:32;;;;;;;4.30;3.87;;;23.50;68.50;;;;;;5039075;28;20464;-71
2022/11/01 07:22:01;;;;;;;5.00;4.70;;;23.50;68.50;;;;;;5034506;28;20507;-73
2022/11/01 07:24:29;;;;;;;5.00;4.60;;;23.50;68.50;;;;;;5028677;28;20452;-71
2022/11/01 07:26:57;;;;;;;5.53;5.07;;;23.50;68.50;;;;;;5037832;28;20450;-72
2022/11/01 07:29:27;;;;;;;5.13;4.80;;;23.50;68.50;;;;;;5045366;28;20445;-71
2022/11/01 07:31:55;;;;;;;5.07;4.60;;;23.50;68.40;;;;;;5035141;28;20529;-71
2022/11/01 07:34:23;;;;;;;4.50;4.10;;;23.50;68.40;;;;;;5039207;28;20573;-73
2022/11/01 07:36:52;;;;;;;5.33;4.87;;;23.50;68.50;;;;;;5040868;28;20467;-73
2022/11/01 07:39:20;;;;;;;4.33;4.10;;;23.50;68.50;;;;;;5038726;28;20470;-73
2022/11/01 07:41:51;;;;;;;5.00;4.60;;;23.50;68.60;;;;;;5045656;28;20555;-72
2022/11/01 07:44:19;;;;;;;5.47;4.73;;;23.50;68.70;;;;;;5039540;28;20455;-73
2022/11/01 07:46:50;;;;;;;5.10;4.70;;;23.50;68.70;;;;;;5027064;28;20954;-72
2022/11/01 07:49:18;;;;;;;5.37;4.87;;;23.50;68.70;;;;;;5029623;28;20549;-72
2022/11/01 07:51:46;;;;;;;4.60;4.30;;;23.60;68.70;;;;;;5032021;28;20818;-73
2022/11/01 07:54:15;;;;;;;5.40;4.90;;;23.60;68.70;;;;;;5032776;28;20465;-73
2022/11/01 07:56:43;;;;;;;4.40;4.10;;;23.60;68.70;;;;;;5030523;28;20926;-74
2022/11/01 07:59:11;;;;;;;4.97;4.60;;;23.60;68.70;;;;;;5031016;28;20468;-73
2022/11/01 08:01:39;;;;;;;5.20;4.80;;;23.60;68.70;;;;;;5036140;28;20460;-72
2022/11/01 08:04:09;;;;;;;4.83;4.43;;;23.60;68.70;;;;;;5029231;28;20502;-72
2022/11/01 08:06:37;;;;;;;4.87;4.47;;;23.60;68.80;;;;;;5033367;28;20463;-72
2022/11/01 08:09:05;;;;;;;4.20;3.90;;;23.60;68.70;;;;;;5041524;28;20463;-72
2022/11/01 08:11:34;;;;;;;4.80;4.43;;;23.60;68.80;;;;;;5037444;28;20482;-72
2022/11/01 08:14:02;;;;;;;4.23;3.93;;;23.60;68.80;;;;;;5034396;28;20837;-72
2022/11/01 08:16:33;;;;;;;4.20;3.80;;;23.60;68.90;;;;;;5035894;28;20465;-73
2022/11/01 08:19:01;;;;;;;4.30;4.00;;;23.60;68.90;;;;;;5025833;28;20443;-73
2022/11/01 08:21:31;;;;;;;5.17;4.77;;;23.70;68.70;;;;;;5039163;28;20461;-72
2022/11/01 08:23:59;;;;;;;5.20;4.80;;;23.70;68.70;;;;;;5038981;28;20508;-72
2022/11/01 08:26:27;;;;;;;5.70;5.27;;;23.70;68.60;;;;;;5040865;28;20469;-72
2022/11/01 08:28:55;;;;;;;5.00;4.60;;;23.70;68.50;;;;;;5040806;28;20990;-72
2022/11/01 08:31:23;;;;;;;5.00;4.70;;;23.70;68.50;;;;;;5039912;28;20498;-72
2022/11/01 08:33:52;;;;;;;5.10;4.40;;;23.70;68.40;;;;;;5029267;28;20512;-75
2022/11/01 08:36:20;;;;;;;5.30;4.80;;;23.70;68.40;;;;;;5029975;28;20457;-74
2022/11/01 08:38:50;;;;;;;4.47;4.17;;;23.80;68.40;;;;;;5034221;28;20456;-75
2022/11/01 08:41:18;;;;;;;4.70;4.30;;;23.80;68.40;;;;;;5036291;28;20458;-76
2022/11/01 08:43:46;;;;;;;4.50;4.17;;;23.80;68.40;;;;;;5035892;28;20991;-75
2022/11/01 08:46:14;;;;;;;4.83;4.53;;;23.70;68.40;;;;;;5030529;28;20462;-75
2022/11/01 08:48:42;;;;;;;5.47;5.07;;;23.80;68.40;;;;;;5029632;28;20948;-75
2022/11/01 08:51:10;;;;;;;5.20;4.80;;;23.80;68.40;;;;;;5028640;28;20482;-75
2022/11/01 08:53:39;;;;;;;4.63;4.23;;;23.80;68.40;;;;;;5031844;28;20474;-76
2022/11/01 08:56:08;;;;;;;4.97;4.53;;;23.70;68.40;;;;;;5029954;28;20484;-76
2022/11/01 08:58:39;;;;;;;5.67;5.10;;;23.70;68.40;;;;;;5029792;28;20472;-76
2022/11/01 09:01:07;;;;;;;5.13;4.73;;;23.70;68.40;;;;;;5022262;28;20992;-76
2022/11/01 09:03:35;;;;;;;4.60;4.30;;;23.70;68.40;;;;;;5026339;28;20446;-75
2022/11/01 09:06:04;;;;;;;5.83;5.33;;;23.70;68.40;;;;;;5028044;28;20465;-76
2022/11/01 09:08:32;;;;;;;4.70;4.40;;;23.70;68.40;;;;;;5029963;28;20471;-76
2022/11/01 09:11:00;;;;;;;5.67;5.27;;;23.70;68.40;;;;;;5027358;28;20504;-76
2022/11/01 09:13:29;;;;;;;6.13;5.70;;;23.70;68.50;;;;;;5028652;28;20458;-76
2022/11/01 09:15:58;;;;;;;4.53;4.23;;;23.70;68.50;;;;;;5026372;28;20464;-76
2022/11/01 09:18:29;;;;;;;4.97;4.57;;;23.70;68.50;;;;;;5035477;28;20508;-76
2022/11/01 09:20:59;;;;;;;4.67;4.30;;;23.70;68.60;;;;;;5029658;28;20867;-75
2022/11/01 09:23:27;;;;;;;6.70;5.77;;;23.60;68.60;;;;;;5035349;28;20451;-83
2022/11/01 09:26:02;;;;;;;6.37;5.87;;;23.60;68.80;;;;;;5036439;28;20465;-71
2022/11/01 09:28:33;;;;;;;6.70;5.47;;;23.60;69.20;;;;;;5032900;28;20485;-74
2022/11/01 09:31:02;;;;;;;8.93;5.33;;;23.60;69.20;;;;;;5030393;28;20480;-74
2022/11/01 09:33:47;;;;;;;11.80;7.07;;;23.60;68.70;;;;;;5034507;28;20538;-78
2022/11/01 09:36:15;;;;;;;10.57;7.70;;;23.70;68.90;;;;;;5039895;28;20940;-76
2022/11/01 09:38:44;;;;;;;9.20;7.83;;;23.70;69.00;;;;;;5032480;28;20450;-80
2022/11/01 09:41:25;;;;;;;8.10;6.73;;;23.70;69.40;;;;;;5033062;28;20460;-76
2022/11/01 09:43:56;;;;;;;7.90;6.93;;;23.70;69.60;;;;;;5035636;28;20470;-74
2022/11/01 09:46:30;;;;;;;8.73;7.77;;;23.70;69.80;;;;;;5026221;28;21199;-76
2022/11/01 09:49:01;;;;;;;11.80;8.33;;;23.80;69.60;;;;;;5026564;28;20549;-75
2022/11/01 09:51:29;;;;;;;11.00;7.23;;;23.80;68.60;;;;;;5041148;28;20566;-77
2022/11/01 09:54:03;;;;;;;8.67;7.77;;;23.80;68.40;;;;;;5038549;28;21030;-76
2022/11/01 09:56:38;;;;;;;8.70;7.70;;;23.80;68.30;;;;;;5031189;28;20550;-75
2022/11/01 09:59:19;;;;;;;10.30;8.40;;;23.80;68.20;;;;;;5026280;28;20454;-76
2022/11/01 10:01:56;;;;;;;8.30;7.40;;;23.80;68.10;;;;;;5042299;28;20524;-77
2022/11/01 10:05:06;;;;;;;10.50;6.87;;;23.80;68.10;;;;;;5040692;28;20744;-77
2022/11/01 10:07:44;;;;;;;9.90;6.90;;;23.80;68.00;;;;;;5034240;28;20456;-77
2022/11/01 10:10:27;;;;;;;7.63;6.83;;;23.80;68.00;;;;;;5034750;28;20492;-79
2022/11/01 10:13:24;;;;;;;8.63;7.83;;;23.80;68.00;;;;;;5045523;28;20483;-78
2022/11/01 10:16:01;;;;;;;11.50;7.40;;;23.80;67.90;;;;;;5041202;28;20455;-77
2022/11/01 10:18:30;;;;;;;7.87;6.93;;;23.80;67.90;;;;;;5042154;28;20991;-78
2022/11/01 10:21:01;;;;;;;7.57;6.80;;;23.80;67.90;;;;;;5039646;28;20959;-75
2022/11/01 10:23:42;;;;;;;8.00;7.20;;;23.80;67.80;;;;;;5032047;28;20458;-74
2022/11/01 10:26:14;;;;;;;8.20;6.60;;;23.80;67.90;;;;;;5040199;28;20591;-77
2022/11/01 10:28:51;;;;;;;7.77;6.40;;;23.80;67.90;;;;;;5036527;28;20981;-76
2022/11/01 10:31:24;;;;;;;7.87;7.10;;;23.80;67.90;;;;;;5039115;28;20988;-78
2022/11/01 10:33:58;;;;;;;7.30;6.40;;;23.80;67.80;;;;;;5034099;28;20481;-77
2022/11/01 10:36:32;;;;;;;8.23;6.97;;;23.90;67.80;;;;;;5037228;28;20452;-76
2022/11/01 10:39:14;;;;;;;9.30;6.73;;;23.90;67.70;;;;;;5039048;28;20614;-76
2022/11/01 10:42:08;;;;;;;6.83;6.13;;;23.90;67.70;;;;;;5038214;28;20462;-77
2022/11/01 10:44:42;;;;;;;11.43;7.13;;;24.00;67.60;;;;;;5035577;28;20467;-78
2022/11/01 10:47:15;;;;;;;12.03;7.40;;;24.10;67.50;;;;;;5036284;28;20462;-77
2022/11/01 10:49:48;;;;;;;9.97;6.60;;;24.10;67.40;;;;;;5030759;28;20463;-78
2022/11/01 10:52:45;;;;;;;9.80;7.47;;;24.20;67.20;;;;;;5030226;28;20474;-78
2022/11/01 10:55:18;;;;;;;8.67;6.33;;;24.20;67.10;;;;;;5040987;28;20539;-79
2022/11/01 10:57:51;;;;;;;6.90;6.20;;;24.20;67.00;;;;;;5034530;28;20527;-78
2022/11/01 11:00:21;;;;;;;8.80;6.43;;;24.20;66.90;;;;;;5031428;28;20463;-78
2022/11/01 11:02:55;;;;;;;8.20;6.53;;;24.20;66.80;;;;;;5032575;28;20535;-79
2022/11/01 11:05:25;;;;;;;9.27;6.10;;;24.30;66.80;;;;;;5031301;28;20521;-78
2022/11/01 11:07:56;;;;;;;6.47;5.87;;;24.20;66.80;;;;;;5032501;28;20456;-79
2022/11/01 11:10:26;;;;;;;7.40;5.90;;;24.20;66.80;;;;;;5031433;28;20546;-77
2022/11/01 11:12:59;;;;;;;8.57;6.63;;;24.20;67.00;;;;;;5032540;28;20475;-78
2022/11/01 11:15:37;;;;;;;8.80;6.47;;;24.20;67.10;;;;;;5032220;28;20449;-79
2022/11/01 11:18:17;;;;;;;6.30;5.37;;;24.20;66.90;;;;;;5032889;28;20451;-79
2022/11/01 11:20:51;;;;;;;8.27;5.30;;;24.20;66.70;;;;;;5029258;28;20475;-78
2022/11/01 11:23:20;;;;;;;6.50;5.80;;;24.20;66.70;;;;;;5033326;28;20444;-78
2022/11/01 11:25:50;;;;;;;6.40;5.83;;;24.20;66.70;;;;;;5031854;28;20553;-80
2022/11/01 11:28:24;;;;;;;7.73;5.50;;;24.20;66.70;;;;;;5033268;28;20977;-79
2022/11/01 11:30:53;;;;;;;6.50;5.13;;;24.20;66.80;;;;;;5038163;28;20574;-79
2022/11/01 11:33:22;;;;;;;7.43;6.20;;;24.10;66.90;;;;;;5037505;28;20477;-79
2022/11/01 11:35:58;;;;;;;6.07;5.33;;;24.10;66.90;;;;;;5033486;28;20461;-79
2022/11/01 11:38:43;;;;;;;5.93;5.23;;;24.10;66.80;;;;;;5039828;28;20542;-78
2022/11/01 11:41:13;;;;;;;7.80;4.97;;;24.10;66.70;;;;;;5035758;28;21153;-81
2022/11/01 11:43:42;;;;;;;5.73;4.40;;;24.10;66.70;;;;;;5044418;28;20446;-81
2022/11/01 11:46:19;;;;;;;5.30;4.80;;;24.10;66.90;;;;;;5034780;28;20457;-81
2022/11/01 11:48:51;;;;;;;7.50;4.43;;;24.10;66.90;;;;;;5038538;28;20443;-80
2022/11/01 11:51:20;;;;;;;9.80;5.20;;;24.20;66.90;;;;;;5036740;28;20454;-81
2022/11/01 11:54:17;;;;;;;5.47;4.97;;;24.20;66.90;;;;;;5043554;28;20555;-80
2022/11/01 11:56:45;;;;;;;8.40;5.30;;;24.20;66.90;;;;;;5035009;28;20445;-81
2022/11/01 11:59:24;;;;;;;6.83;4.37;;;24.20;66.90;;;;;;5044350;28;20947;-80
2022/11/01 12:02:02;;;;;;;4.20;3.90;;;24.20;67.00;;;;;;5035902;28;21126;-81
2022/11/01 12:04:39;;;;;;;5.30;4.23;;;24.20;67.00;;;;;;5042069;28;20518;-81
2022/11/01 12:07:21;;;;;;;6.37;4.77;;;24.20;66.90;;;;;;5043504;28;20452;-82
2022/11/01 12:09:49;;;;;;;7.70;4.53;;;24.20;66.90;;;;;;5036895;28;20459;-81
2022/11/01 12:12:19;;;;;;;5.80;4.00;;;24.20;66.90;;;;;;5038247;28;20468;-82
2022/11/01 12:14:48;;;;;;;6.13;4.10;;;24.20;66.90;;;;;;5036459;28;20514;-81
2022/11/01 12:17:31;;;;;;;4.43;4.03;;;24.20;66.90;;;;;;5046654;28;20545;-81
2022/11/01 12:20:09;;;;;;;5.30;4.80;;;24.20;66.90;;;;;;5039070;28;20806;-81
2022/11/01 12:22:42;;;;;;;5.30;4.80;;;24.20;66.90;;;;;;5039553;28;20451;-81
2022/11/01 12:25:15;;;;;;;4.20;3.90;;;24.20;66.90;;;;;;5036939;28;20455;-80
2022/11/01 12:27:54;;;;;;;5.53;4.30;;;24.20;66.80;;;;;;5037474;28;20484;-80
2022/11/01 12:30:25;;;;;;;4.70;4.40;;;24.20;66.80;;;;;;5033814;28;21076;-81
2022/11/01 12:32:56;;;;;;;5.90;3.80;;;24.20;66.80;;;;;;5042834;28;20915;-80
2022/11/01 12:35:32;;;;;;;5.33;4.00;;;24.20;66.60;;;;;;5034510;28;21342;-80
2022/11/01 12:38:33;;;;;;;4.63;4.10;;;24.20;66.70;;;;;;5043366;28;20438;-80
2022/11/01 12:41:13;;;;;;;4.13;3.77;;;24.20;66.80;;;;;;5037183;28;20803;-81
2022/11/01 12:43:53;;;;;;;4.33;3.33;;;24.20;66.80;;;;;;5043356;28;20494;-81
2022/11/01 12:46:32;;;;;;;3.97;3.67;;;24.20;66.90;;;;;;5038853;28;20968;-80
2022/11/01 12:49:05;;;;;;;4.43;3.50;;;24.20;66.90;;;;;;5038297;28;20542;-80
2022/11/01 12:51:40;;;;;;;4.50;3.87;;;24.30;66.90;;;;;;5029870;28;20445;-81
2022/11/01 12:54:13;;;;;;;3.77;3.47;;;24.30;66.80;;;;;;5028860;28;20479;-81
2022/11/01 12:56:41;;;;;;;5.27;4.23;;;24.30;66.90;;;;;;5029796;28;20456;-81
2022/11/01 12:59:12;;;;;;;4.63;3.90;;;24.30;66.90;;;;;;5026904;28;20479;-81
2022/11/01 13:01:48;;;;;;;4.00;3.60;;;24.30;66.90;;;;;;5032653;28;20536;-81
2022/11/01 13:04:22;;;;;;;3.73;3.33;;;24.30;67.00;;;;;;5032158;28;20481;-81
2022/11/01 13:07:13;;;;;;;3.70;3.40;;;24.30;67.00;;;;;;5032181;28;20467;-81
2022/11/01 13:09:51;;;;;;;3.83;3.43;;;24.30;67.10;;;;;;5035735;28;20451;-80
2022/11/01 13:12:28;;;;;;;5.50;4.03;;;24.30;67.10;;;;;;5034453;28;20445;-80
2022/11/01 13:15:04;;;;;;;4.13;3.83;;;24.30;67.10;;;;;;5024956;28;20972;-80
2022/11/01 13:17:40;;;;;;;3.30;2.97;;;24.30;67.10;;;;;;5023671;28;20463;-80
2022/11/01 13:20:23;;;;;;;3.87;3.37;;;24.30;67.10;;;;;;5027784;28;20447;-80